Terminal Aerodrome Forecast
Issued by NWS

Home | Current Version | Previous Version | Text Only | Print | Product List | Glossary On
Versions: 1 2 3 4 5 6 7 8 9 10 11 12 13 14 15 16 17 18 19 20 21 22 23 24 25
000
FTUS41 KBUF 300900 AAA
TAFJHW
TAF AMD
KJHW 300904Z 3009/3106 22013G20KT 5SM -RASN BR OVC008
     FM301400 26016G25KT P6SM OVC025
     FM301900 27016G25KT 4SM -SN OVC030
     FM302300 28009KT P6SM BKN035
      AMD LTD TO CLD VIS AND WIND=

USA.gov is the U.S. government's official web portal to all federal, state and local government web resources and services.